createdAt,value
2019-03-10T00:00:48.918Z,79.47
2019-03-10T00:03:53.369Z,79.76
2019-03-10T00:06:57.780Z,78.65
2019-03-10T00:10:02.178Z,78.28
2019-03-10T00:13:06.596Z,78.19
2019-03-10T00:16:11.028Z,78.32
2019-03-10T00:19:15.655Z,78.43
2019-03-10T00:22:20.001Z,79.06
2019-03-10T00:25:26.682Z,79.08
2019-03-10T00:28:31.070Z,79.17
2019-03-10T00:31:35.425Z,78.98
2019-03-10T00:34:39.860Z,79.16
2019-03-10T00:37:44.412Z,79.02
2019-03-10T00:41:28.272Z,78.14
2019-03-10T00:45:24.584Z,78.29
2019-03-10T00:49:15.524Z,77.30
2019-03-10T00:52:23.685Z,77.86
2019-03-10T00:55:28.190Z,76.95
2019-03-10T00:58:34.610Z,80.71
2019-03-10T01:01:38.662Z,85.62
2019-03-10T01:04:43.117Z,85.31
2019-03-10T01:07:49.035Z,85.93
2019-03-10T01:10:53.703Z,85.57
2019-03-10T01:13:58.096Z,85.57
2019-03-10T01:17:05.307Z,83.93
2019-03-10T01:20:10.536Z,82.84
2019-03-10T01:23:17.847Z,82.77
2019-03-10T01:26:22.265Z,82.79
2019-03-10T01:29:26.706Z,82.49
2019-03-10T01:32:42.456Z,82.23
2019-03-10T01:35:49.443Z,81.16
2019-03-10T01:38:53.868Z,80.62
2019-03-10T01:41:58.260Z,80.51
2019-03-10T01:45:02.981Z,80.18
2019-03-10T01:48:07.400Z,80.44
2019-03-10T01:51:11.897Z,80.49
2019-03-10T01:54:16.356Z,80.36
2019-03-10T01:57:20.740Z,80.97
2019-03-10T02:00:25.095Z,81.78
2019-03-10T02:03:33.324Z,83.06
2019-03-10T02:06:38.876Z,83.70
2019-03-10T02:09:43.197Z,83.84
2019-03-10T02:12:47.630Z,84.00
2019-03-10T02:15:51.974Z,83.87
2019-03-10T02:18:56.371Z,84.12
2019-03-10T02:22:00.728Z,83.81
2019-03-10T02:25:05.751Z,85.07
2019-03-10T02:28:10.153Z,89.89
2019-03-10T02:31:14.631Z,89.62
2019-03-10T02:34:18.947Z,90.18
2019-03-10T02:37:26.417Z,89.25
2019-03-10T02:40:31.047Z,88.77
2019-03-10T02:43:43.005Z,87.73
2019-03-10T02:46:47.600Z,88.48
2019-03-10T02:49:52.232Z,88.53
2019-03-10T02:52:59.767Z,88.02
2019-03-10T02:56:04.165Z,88.25
2019-03-10T02:59:08.953Z,88.96
2019-03-10T03:02:13.589Z,88.94
2019-03-10T03:05:19.857Z,88.73
2019-03-10T03:08:24.225Z,88.77
2019-03-10T03:11:29.003Z,87.79
2019-03-10T03:14:33.929Z,87.39
2019-03-10T03:17:38.362Z,86.46
2019-03-10T03:20:42.770Z,86.27
2019-03-10T03:23:47.376Z,86.17
2019-03-10T03:26:51.817Z,84.33
2019-03-10T03:29:57.503Z,84.42
2019-03-10T03:33:02.223Z,83.58
2019-03-10T03:36:15.180Z,82.97
2019-03-10T03:39:47.780Z,82.50
2019-03-10T03:42:52.319Z,83.09
2019-03-10T03:45:56.692Z,83.72
2019-03-10T03:49:01.200Z,84.02
2019-03-10T03:52:05.615Z,84.78
2019-03-10T03:55:10.087Z,84.86
2019-03-10T03:58:14.505Z,85.79
2019-03-10T04:01:22.964Z,86.23
2019-03-10T04:04:27.381Z,86.92
2019-03-10T04:07:31.725Z,86.87
2019-03-10T04:10:36.162Z,87.51
2019-03-10T04:13:40.730Z,88.11
2019-03-10T04:16:45.331Z,88.36
2019-03-10T04:19:49.696Z,88.45
2019-03-10T04:22:54.052Z,88.68
2019-03-10T04:26:00.879Z,88.81
2019-03-10T04:29:07.760Z,88.91
2019-03-10T04:32:14.422Z,89.15
2019-03-10T04:35:21.581Z,89.35
2019-03-10T04:38:26.078Z,89.50
2019-03-10T04:41:30.468Z,89.65
2019-03-10T04:44:36.297Z,89.98
2019-03-10T04:47:41.124Z,90.22
2019-03-10T04:50:46.652Z,90.21
2019-03-10T04:53:51.132Z,90.04
2019-03-10T04:57:07.262Z,89.93
2019-03-10T05:00:14.171Z,90.04
2019-03-10T05:03:18.721Z,89.95
2019-03-10T05:06:23.267Z,90.15
2019-03-10T05:09:29.647Z,90.05
2019-03-10T05:12:34.256Z,89.84
2019-03-10T05:15:38.759Z,89.44
2019-03-10T05:18:43.299Z,89.50
2019-03-10T05:21:47.985Z,89.23
2019-03-10T05:24:52.866Z,88.98
2019-03-10T05:27:57.267Z,88.64
2019-03-10T05:31:03.415Z,88.72
2019-03-10T05:34:11.180Z,88.43
2019-03-10T05:37:17.779Z,88.65
2019-03-10T05:40:22.403Z,88.80
2019-03-10T05:43:29.779Z,89.06
2019-03-10T05:46:34.331Z,89.42
2019-03-10T05:49:41.132Z,89.55
2019-03-10T05:52:45.185Z,89.60
2019-03-10T05:55:49.656Z,89.52
2019-03-10T05:58:54.099Z,89.51
2019-03-10T06:01:58.452Z,89.50
2019-03-10T06:05:02.867Z,89.67
2019-03-10T06:08:07.354Z,89.45
2019-03-10T06:11:12.027Z,89.46
2019-03-10T06:14:16.685Z,89.06
2019-03-10T06:17:21.604Z,89.09
2019-03-10T06:20:26.143Z,89.37
2019-03-10T06:23:30.688Z,89.59
2019-03-10T06:26:35.206Z,89.49
2019-03-10T06:29:39.603Z,89.40
2019-03-10T06:32:43.976Z,89.02
2019-03-10T06:35:48.287Z,88.64
2019-03-10T06:38:55.019Z,88.33
2019-03-10T06:41:58.733Z,87.71
2019-03-10T06:45:03.030Z,87.60
2019-03-10T06:48:07.328Z,87.76
2019-03-10T06:51:11.610Z,86.94
2019-03-10T06:54:18.520Z,86.33
2019-03-10T06:57:22.813Z,85.91
2019-03-10T07:00:27.174Z,85.80
2019-03-10T07:03:31.478Z,85.53
2019-03-10T07:06:35.865Z,85.53
2019-03-10T07:09:40.167Z,85.87
2019-03-10T07:12:44.452Z,85.81
2019-03-10T07:15:48.759Z,85.51
2019-03-10T07:18:53.069Z,85.37
2019-03-10T07:21:57.542Z,85.78
2019-03-10T07:25:01.987Z,86.11
2019-03-10T07:28:28.452Z,86.29
2019-03-10T07:31:41.000Z,86.50
2019-03-10T07:35:00.058Z,86.70
2019-03-10T07:38:41.641Z,87.00
2019-03-10T07:41:51.044Z,87.19
2019-03-10T07:45:17.374Z,86.89
2019-03-10T07:48:40.672Z,86.74
2019-03-10T07:52:19.775Z,86.26
2019-03-10T07:55:26.274Z,85.31
2019-03-10T07:58:48.399Z,84.74
2019-03-10T08:02:21.117Z,83.90
2019-03-10T08:05:48.131Z,82.88
2019-03-10T08:09:12.605Z,83.32
2019-03-10T08:12:25.767Z,82.33
2019-03-10T08:15:41.906Z,81.27
2019-03-10T08:19:07.331Z,80.64
2019-03-10T08:22:30.773Z,81.32
2019-03-10T08:25:52.904Z,80.52
2019-03-10T08:29:07.902Z,80.63
2019-03-10T08:32:25.878Z,80.67
2019-03-10T08:36:07.327Z,79.97
2019-03-10T08:39:22.839Z,79.45
2019-03-10T08:42:40.147Z,79.86
2019-03-10T08:45:51.028Z,79.06
2019-03-10T08:49:01.810Z,78.70
2019-03-10T08:52:11.644Z,79.28
2019-03-10T08:55:41.197Z,79.27
2019-03-10T08:59:07.589Z,79.82
2019-03-10T09:02:34.881Z,79.05
2019-03-10T09:06:04.029Z,78.90
2019-03-10T09:09:27.665Z,79.21
2019-03-10T09:12:47.769Z,79.10
2019-03-10T09:16:02.644Z,79.37
2019-03-10T09:19:23.085Z,79.53
2019-03-10T09:22:42.930Z,77.82
2019-03-10T09:26:09.662Z,79.88
2019-03-10T09:29:32.931Z,82.64
2019-03-10T09:32:59.310Z,82.84
2019-03-10T09:36:13.528Z,84.66
2019-03-10T09:39:51.919Z,86.77
2019-03-10T09:43:19.375Z,87.41
2019-03-10T09:46:48.548Z,87.34
2019-03-10T09:50:09.582Z,88.13
2019-03-10T09:53:22.756Z,86.97
2019-03-10T09:56:51.830Z,84.24
2019-03-10T10:00:08.940Z,82.79
2019-03-10T10:03:32.150Z,78.13
2019-03-10T10:06:44.446Z,77.62
2019-03-10T10:10:07.382Z,77.03
2019-03-10T10:13:39.787Z,76.22
2019-03-10T10:17:09.299Z,75.30
2019-03-10T10:20:51.035Z,73.12
2019-03-10T10:24:26.176Z,71.88
2019-03-10T10:27:48.296Z,72.48
2019-03-10T10:31:14.059Z,73.82
2019-03-10T10:34:38.245Z,71.80
2019-03-10T10:37:51.170Z,71.43
2019-03-10T10:41:32.625Z,66.91
2019-03-10T10:44:58.386Z,67.98
2019-03-10T10:48:15.976Z,68.19
2019-03-10T10:52:03.591Z,68.43
2019-03-10T10:55:23.342Z,69.99
2019-03-10T10:58:54.844Z,69.77
2019-03-10T11:02:14.271Z,68.50
2019-03-10T11:05:28.375Z,67.78
2019-03-10T11:08:46.472Z,66.58
2019-03-10T11:12:12.470Z,66.05
2019-03-10T11:15:24.834Z,66.09
2019-03-10T11:18:51.016Z,66.44
2019-03-10T11:22:24.504Z,66.06
2019-03-10T11:25:41.592Z,66.17
2019-03-10T11:29:04.965Z,67.08
2019-03-10T11:32:37.276Z,68.35
2019-03-10T11:35:54.802Z,68.08
2019-03-10T11:39:11.384Z,68.15
2019-03-10T11:42:33.696Z,68.45
2019-03-10T11:45:45.118Z,68.46
2019-03-10T11:49:17.243Z,66.05
2019-03-10T11:52:30.976Z,64.58
2019-03-10T11:56:03.547Z,63.59
2019-03-10T11:59:12.088Z,63.02
2019-03-10T12:02:25.754Z,62.78
2019-03-10T12:05:52.704Z,62.97
2019-03-10T12:09:36.635Z,62.19
2019-03-10T12:12:19.784Z,63.02
2019-03-10T12:15:24.204Z,64.41
2019-03-10T12:18:28.548Z,62.79
2019-03-10T12:21:32.984Z,62.36
2019-03-10T12:24:39.933Z,63.41
2019-03-10T12:27:44.558Z,64.16
2019-03-10T12:30:48.983Z,65.03
2019-03-10T12:33:53.468Z,67.30
2019-03-10T12:36:57.967Z,69.16
2019-03-10T12:40:02.775Z,69.74
2019-03-10T12:43:07.104Z,69.98
2019-03-10T12:46:11.425Z,66.48
2019-03-10T12:49:15.994Z,66.90
2019-03-10T12:52:20.479Z,64.74
2019-03-10T12:55:24.913Z,64.25
2019-03-10T12:58:29.576Z,65.71
2019-03-10T13:01:34.128Z,65.55
2019-03-10T13:04:41.430Z,65.76
2019-03-10T13:07:45.819Z,66.23
2019-03-10T13:10:50.142Z,63.15
2019-03-10T13:13:55.339Z,62.66
2019-03-10T13:16:59.647Z,63.16
2019-03-10T13:20:04.484Z,63.91
2019-03-10T13:23:08.950Z,64.74
2019-03-10T13:26:16.523Z,65.62
2019-03-10T13:29:20.869Z,66.18
2019-03-10T13:32:25.185Z,66.41
2019-03-10T13:35:29.607Z,67.28
2019-03-10T13:38:33.912Z,66.65
2019-03-10T13:41:40.329Z,66.80
2019-03-10T13:44:44.802Z,66.13
2019-03-10T13:47:50.656Z,65.47
2019-03-10T13:50:55.278Z,65.92
2019-03-10T13:53:59.811Z,65.43
2019-03-10T13:57:04.143Z,64.39
2019-03-10T14:00:11.240Z,65.82
2019-03-10T14:03:15.685Z,66.97
2019-03-10T14:06:20.288Z,68.04
2019-03-10T14:09:24.769Z,67.98
2019-03-10T14:12:29.187Z,68.05
2019-03-10T14:15:35.895Z,67.16
2019-03-10T14:18:40.402Z,66.84
2019-03-10T14:21:44.776Z,67.49
2019-03-10T14:24:49.193Z,67.33
2019-03-10T14:27:55.249Z,67.89
2019-03-10T14:30:59.649Z,66.61
2019-03-10T14:34:04.262Z,66.89
2019-03-10T14:37:08.708Z,66.71
2019-03-10T14:40:13.543Z,66.89
2019-03-10T14:43:20.880Z,66.85
2019-03-10T14:46:25.499Z,66.19
2019-03-10T14:49:30.004Z,66.34
2019-03-10T14:52:34.488Z,67.27
2019-03-10T14:55:40.210Z,65.54
2019-03-10T14:58:45.921Z,65.06
2019-03-10T15:01:50.306Z,65.25
2019-03-10T15:04:54.736Z,65.48
2019-03-10T15:07:59.194Z,66.74
2019-03-10T15:11:03.787Z,67.35
2019-03-10T15:14:13.114Z,67.89
2019-03-10T15:17:19.018Z,68.30
2019-03-10T15:20:23.372Z,68.81
2019-03-10T15:23:27.996Z,69.82
2019-03-10T15:26:32.329Z,70.68
2019-03-10T15:29:36.761Z,70.88
2019-03-10T15:32:41.219Z,70.88
2019-03-10T15:35:45.631Z,70.85
2019-03-10T15:38:50.032Z,71.63
2019-03-10T15:41:54.357Z,71.87
2019-03-10T15:44:58.940Z,72.40
2019-03-10T15:48:03.362Z,72.58
2019-03-10T15:51:08.117Z,72.94
2019-03-10T15:54:12.593Z,73.35
2019-03-10T15:57:16.986Z,73.34
2019-03-10T16:00:21.579Z,73.68
2019-03-10T16:03:27.058Z,73.91
2019-03-10T16:06:31.562Z,74.35
2019-03-10T16:09:35.928Z,74.86
2019-03-10T16:12:40.336Z,74.73
2019-03-10T16:15:44.795Z,75.06
2019-03-10T16:18:50.975Z,75.26
2019-03-10T16:21:55.202Z,75.54
2019-03-10T16:24:59.571Z,75.95
2019-03-10T16:28:04.004Z,75.79
2019-03-10T16:31:08.449Z,75.34
2019-03-10T16:34:12.744Z,75.44
2019-03-10T16:37:17.308Z,74.68
2019-03-10T16:40:22.031Z,74.67
2019-03-10T16:43:26.438Z,75.26
2019-03-10T16:46:30.877Z,75.39
2019-03-10T16:49:35.259Z,75.50
2019-03-10T16:52:39.727Z,75.96
2019-03-10T16:55:44.277Z,76.33
2019-03-10T16:58:48.610Z,76.64
2019-03-10T17:01:52.949Z,77.16
2019-03-10T17:04:57.778Z,77.64
2019-03-10T17:08:03.581Z,77.85
2019-03-10T17:11:08.133Z,78.31
2019-03-10T17:14:12.540Z,78.30
2019-03-10T17:17:17.346Z,78.63
2019-03-10T17:20:22.384Z,78.62
2019-03-10T17:23:29.667Z,79.01
2019-03-10T17:26:34.141Z,79.72
2019-03-10T17:29:38.569Z,80.17
2019-03-10T17:32:44.240Z,80.76
2019-03-10T17:35:48.722Z,81.13
2019-03-10T17:38:53.205Z,81.55
2019-03-10T17:41:57.987Z,81.77
2019-03-10T17:45:02.702Z,82.14
2019-03-10T17:48:07.335Z,82.41
2019-03-10T17:51:11.946Z,82.52
2019-03-10T17:54:16.450Z,82.50
2019-03-10T17:57:24.064Z,82.52
2019-03-10T18:00:32.282Z,82.89
2019-03-10T18:03:36.923Z,82.89
2019-03-10T18:06:41.493Z,82.93
2019-03-10T18:09:48.477Z,82.70
2019-03-10T18:12:53.178Z,82.86
2019-03-10T18:16:01.806Z,82.47
2019-03-10T18:19:06.692Z,82.29
2019-03-10T18:22:11.445Z,82.36
2019-03-10T18:25:16.613Z,82.42
2019-03-10T18:28:21.276Z,82.51
2019-03-10T18:31:26.121Z,82.51
2019-03-10T18:34:32.417Z,82.62
2019-03-10T18:37:37.041Z,82.68
2019-03-10T18:40:41.853Z,82.79
2019-03-10T18:43:46.330Z,82.87
2019-03-10T18:46:50.849Z,82.98
2019-03-10T18:49:55.718Z,83.16
2019-03-10T18:53:00.577Z,83.29
2019-03-10T18:56:05.645Z,83.48
2019-03-10T18:59:10.419Z,83.66
2019-03-10T19:02:15.237Z,83.71
2019-03-10T19:05:20.053Z,83.77
2019-03-10T19:08:24.834Z,83.95
2019-03-10T19:11:29.811Z,84.19
2019-03-10T19:14:34.602Z,84.47
2019-03-10T19:17:39.591Z,84.76
2019-03-10T19:20:46.995Z,85.19
2019-03-10T19:23:51.854Z,85.70
2019-03-10T19:26:56.642Z,86.27
2019-03-10T19:30:01.482Z,86.71
2019-03-10T19:33:06.358Z,86.97
2019-03-10T19:36:11.347Z,87.26
2019-03-10T19:39:16.269Z,87.42
2019-03-10T19:42:23.422Z,87.73
2019-03-10T19:45:28.509Z,87.84
2019-03-10T19:48:33.744Z,88.22
2019-03-10T19:51:38.686Z,88.29
2019-03-10T19:54:46.256Z,88.34
2019-03-10T19:57:51.086Z,88.43
2019-03-10T20:00:56.157Z,88.46
2019-03-10T20:04:00.952Z,88.57
2019-03-10T20:07:06.046Z,88.65
2019-03-10T20:10:11.971Z,88.49
2019-03-10T20:13:19.772Z,88.47
2019-03-10T20:16:24.552Z,88.41
2019-03-10T20:19:29.554Z,88.28
2019-03-10T20:22:34.411Z,88.18
2019-03-10T20:25:39.270Z,88.12
2019-03-10T20:28:47.236Z,88.13
2019-03-10T20:31:52.300Z,87.54
2019-03-10T20:34:57.102Z,87.46
2019-03-10T20:38:02.089Z,87.54
2019-03-10T20:41:08.798Z,87.74
2019-03-10T20:44:13.912Z,87.88
2019-03-10T20:47:18.963Z,87.97
2019-03-10T20:50:23.744Z,87.75
2019-03-10T20:53:30.552Z,87.18
2019-03-10T20:56:35.685Z,86.51
2019-03-10T20:59:40.710Z,85.46
2019-03-10T21:02:46.131Z,85.16
2019-03-10T21:05:54.094Z,84.97
2019-03-10T21:08:59.097Z,84.50
2019-03-10T21:12:03.693Z,84.47
2019-03-10T21:15:10.846Z,84.33
2019-03-10T21:18:15.502Z,84.42
2019-03-10T21:21:20.234Z,84.45
2019-03-10T21:24:24.701Z,85.17
2019-03-10T21:27:29.060Z,85.34
2019-03-10T21:30:33.699Z,85.68
2019-03-10T21:33:38.053Z,86.10
2019-03-10T21:36:42.565Z,86.23
2019-03-10T21:39:49.282Z,86.19
2019-03-10T21:42:53.011Z,86.21
2019-03-10T21:45:57.472Z,86.36
2019-03-10T21:49:01.884Z,86.43
2019-03-10T21:52:06.250Z,86.77
2019-03-10T21:55:13.952Z,87.27
2019-03-10T21:58:18.939Z,87.82
2019-03-10T22:01:23.335Z,87.89
2019-03-10T22:04:27.820Z,88.00
2019-03-10T22:07:32.308Z,89.44
2019-03-10T22:10:36.631Z,90.57
2019-03-10T22:13:46.660Z,90.43
2019-03-10T22:16:47.264Z,90.59
2019-03-10T22:19:51.639Z,91.02
2019-03-10T22:22:56.090Z,91.11
2019-03-10T22:26:00.466Z,91.06
2019-03-10T22:29:04.792Z,90.82
2019-03-10T22:32:09.214Z,90.71
2019-03-10T22:35:14.211Z,90.73
2019-03-10T22:38:18.503Z,90.65
2019-03-10T22:41:22.867Z,90.68
2019-03-10T22:44:28.005Z,90.69
2019-03-10T22:47:34.895Z,90.76
2019-03-10T22:50:39.258Z,90.92
2019-03-10T22:53:43.684Z,90.93
2019-03-10T22:56:49.337Z,91.04
2019-03-10T22:59:53.689Z,91.16
2019-03-10T23:02:58.251Z,91.17
2019-03-10T23:06:02.713Z,91.21
2019-03-10T23:09:08.379Z,91.34
2019-03-10T23:12:12.895Z,91.40
2019-03-10T23:15:17.229Z,91.37
2019-03-10T23:18:21.645Z,91.28
2019-03-10T23:21:26.178Z,91.28
2019-03-10T23:24:30.610Z,91.18
2019-03-10T23:27:38.253Z,91.06
2019-03-10T23:30:42.834Z,90.99
2019-03-10T23:33:47.351Z,90.98
2019-03-10T23:36:53.155Z,91.03
2019-03-10T23:39:57.510Z,91.01
2019-03-10T23:43:03.080Z,91.08
2019-03-10T23:46:07.568Z,91.01
2019-03-10T23:49:12.436Z,90.96
2019-03-10T23:52:16.936Z,90.81
2019-03-10T23:55:21.338Z,90.73
2019-03-10T23:58:25.761Z,90.67
